createdAt,value
2022-08-08T00:01:10.056Z,99.90
2022-08-08T00:03:48.282Z,99.90
2022-08-08T00:06:33.859Z,99.90
2022-08-08T00:09:08.519Z,99.90
2022-08-08T00:11:46.770Z,99.90
2022-08-08T00:14:57.080Z,99.90
2022-08-08T00:18:01.720Z,99.90
2022-08-08T00:20:32.102Z,99.90
2022-08-08T00:23:06.202Z,99.90
2022-08-08T00:25:46.238Z,99.90
2022-08-08T00:28:34.621Z,99.90
2022-08-08T00:32:21.039Z,99.90
2022-08-08T00:34:20.318Z,99.90
2022-08-08T00:37:03.384Z,99.90
2022-08-08T00:41:08.859Z,99.90
2022-08-08T00:42:54.266Z,99.90
2022-08-08T00:45:55.387Z,99.90
2022-08-08T00:49:14.153Z,99.90
2022-08-08T00:52:19.645Z,99.90
2022-08-08T00:55:16.734Z,99.90
2022-08-08T00:58:30.552Z,99.90
2022-08-08T01:01:19.560Z,99.90
2022-08-08T01:04:47.617Z,99.90
2022-08-08T01:08:05.381Z,99.90
2022-08-08T01:11:18.078Z,99.90
2022-08-08T01:14:18.815Z,99.90
2022-08-08T01:17:54.112Z,99.90
2022-08-08T01:20:44.282Z,99.90
2022-08-08T01:24:05.979Z,99.90
2022-08-08T01:27:21.366Z,99.90
2022-08-08T01:30:35.637Z,99.90
2022-08-08T01:33:54.493Z,99.90
2022-08-08T01:36:54.754Z,99.90
2022-08-08T01:39:42.020Z,99.90
2022-08-08T01:42:17.521Z,99.90
2022-08-08T01:45:13.857Z,99.90
2022-08-08T01:48:15.003Z,99.90
2022-08-08T01:51:01.481Z,99.90
2022-08-08T01:55:16.260Z,99.90
2022-08-08T01:56:46.838Z,99.90
2022-08-08T02:00:00.970Z,99.90
2022-08-08T02:02:48.895Z,99.90
2022-08-08T02:05:33.922Z,99.90
2022-08-08T02:08:33.920Z,99.90
2022-08-08T02:11:08.285Z,99.90
2022-08-08T02:13:57.493Z,99.90
2022-08-08T02:16:30.218Z,99.90
2022-08-08T02:19:27.001Z,99.90
2022-08-08T02:22:20.398Z,99.90
2022-08-08T02:25:00.612Z,99.90
2022-08-08T02:27:42.586Z,99.90
2022-08-08T02:30:20.933Z,99.90
2022-08-08T02:33:06.964Z,99.90
2022-08-08T02:36:04.255Z,99.90
2022-08-08T02:38:49.141Z,99.90
2022-08-08T02:42:04.206Z,99.90
2022-08-08T02:45:18.254Z,99.90
2022-08-08T02:48:26.168Z,99.90
2022-08-08T02:51:46.596Z,99.90
2022-08-08T02:55:02.408Z,99.90
2022-08-08T02:58:03.361Z,99.90
2022-08-08T03:01:15.069Z,99.90
2022-08-08T03:05:03.953Z,99.90
2022-08-08T03:07:57.731Z,99.90
2022-08-08T03:10:59.176Z,99.90
2022-08-08T03:16:00.659Z,99.90
2022-08-08T03:16:48.536Z,99.90
2022-08-08T03:19:39.748Z,99.90
2022-08-08T03:22:38.098Z,99.90
2022-08-08T03:25:14.507Z,99.90
2022-08-08T03:27:57.066Z,99.90
2022-08-08T03:30:26.245Z,99.90
2022-08-08T03:33:55.767Z,99.90
2022-08-08T03:36:00.955Z,99.90
2022-08-08T03:38:56.241Z,99.90
2022-08-08T03:42:04.191Z,99.90
2022-08-08T03:44:07.183Z,99.90
2022-08-08T03:46:45.253Z,99.90
2022-08-08T03:49:58.343Z,99.90
2022-08-08T03:52:12.789Z,99.90
2022-08-08T03:55:02.443Z,99.90
2022-08-08T03:58:32.141Z,99.90
2022-08-08T04:00:26.135Z,99.90
2022-08-08T04:03:00.575Z,99.90
2022-08-08T04:05:30.432Z,99.90
2022-08-08T04:07:59.116Z,99.90
2022-08-08T04:10:32.152Z,99.90
2022-08-08T04:13:17.127Z,99.90
2022-08-08T04:15:55.104Z,99.90
2022-08-08T04:18:32.365Z,99.90
2022-08-08T04:21:00.858Z,99.90
2022-08-08T04:24:04.707Z,99.90
2022-08-08T04:26:16.721Z,99.90
2022-08-08T04:28:48.709Z,99.90
2022-08-08T04:31:30.757Z,99.90
2022-08-08T04:34:10.330Z,99.90
2022-08-08T04:36:38.193Z,99.90
2022-08-08T04:39:48.166Z,99.90
2022-08-08T04:41:53.924Z,99.90
2022-08-08T04:44:26.931Z,99.90
2022-08-08T04:46:55.143Z,99.90
2022-08-08T04:49:28.580Z,99.90
2022-08-08T04:51:57.835Z,99.90
2022-08-08T04:54:39.427Z,99.90
2022-08-08T04:57:10.224Z,99.90
2022-08-08T04:59:42.326Z,99.90
2022-08-08T05:02:10.679Z,99.90
2022-08-08T05:04:42.137Z,99.90
2022-08-08T05:07:14.891Z,99.90
2022-08-08T05:09:43.338Z,99.90
2022-08-08T05:12:20.608Z,99.90
2022-08-08T05:14:52.310Z,99.90
2022-08-08T05:17:21.615Z,99.90
2022-08-08T05:20:09.840Z,99.90
2022-08-08T05:22:37.516Z,99.90
2022-08-08T05:25:05.974Z,99.90
2022-08-08T05:27:41.448Z,99.90
2022-08-08T05:30:13.676Z,99.90
2022-08-08T05:32:42.549Z,99.90
2022-08-08T05:35:13.570Z,99.90
2022-08-08T05:37:52.707Z,99.90
2022-08-08T05:40:28.073Z,99.90
2022-08-08T05:43:38.193Z,99.90
2022-08-08T05:46:02.015Z,99.90
2022-08-08T05:48:34.683Z,99.90
2022-08-08T05:51:14.418Z,99.90
2022-08-08T05:54:26.177Z,99.90
2022-08-08T05:56:38.520Z,99.90
2022-08-08T06:00:01.248Z,99.90
2022-08-08T06:02:41.031Z,99.90
2022-08-08T06:05:35.144Z,99.90
2022-08-08T06:08:10.529Z,99.90
2022-08-08T06:10:52.180Z,99.90
2022-08-08T06:13:22.810Z,99.90
2022-08-08T06:15:53.705Z,99.90
2022-08-08T06:18:25.447Z,99.90
2022-08-08T06:20:57.443Z,99.90
2022-08-08T06:23:48.916Z,99.90
2022-08-08T06:26:43.418Z,99.90
2022-08-08T06:29:10.692Z,99.90
2022-08-08T06:32:10.445Z,99.50
2022-08-08T06:34:41.051Z,99.90
2022-08-08T06:37:25.447Z,99.80
2022-08-08T06:40:06.463Z,98.80
2022-08-08T06:42:40.849Z,98.80
2022-08-08T06:45:09.718Z,97.90
2022-08-08T06:47:52.379Z,98.60
2022-08-08T06:50:32.063Z,97.30
2022-08-08T06:53:01.908Z,98.00
2022-08-08T06:55:43.200Z,99.00
2022-08-08T06:58:11.318Z,99.90
2022-08-08T07:00:41.260Z,99.90
2022-08-08T07:03:19.598Z,99.90
2022-08-08T07:06:06.601Z,99.90
2022-08-08T07:08:39.771Z,99.90
2022-08-08T07:11:22.012Z,99.90
2022-08-08T07:14:00.330Z,99.90
2022-08-08T07:16:51.199Z,99.90
2022-08-08T07:19:31.478Z,99.90
2022-08-08T07:22:11.998Z,99.90
2022-08-08T07:24:53.228Z,99.90
2022-08-08T07:27:35.543Z,99.90
2022-08-08T07:30:19.709Z,99.90
2022-08-08T07:32:54.304Z,99.90
2022-08-08T07:35:23.006Z,99.90
2022-08-08T07:38:04.993Z,99.90
2022-08-08T07:40:40.012Z,99.90
2022-08-08T07:43:09.449Z,99.90
2022-08-08T07:46:05.291Z,99.90
2022-08-08T07:48:29.850Z,99.90
2022-08-08T07:51:00.970Z,99.90
2022-08-08T07:54:00.918Z,99.90
2022-08-08T07:56:36.091Z,99.90
2022-08-08T07:59:10.449Z,99.90
2022-08-08T08:02:34.767Z,99.90
2022-08-08T08:04:39.868Z,99.90
2022-08-08T08:07:10.879Z,99.90
2022-08-08T08:09:42.401Z,99.90
2022-08-08T08:12:31.652Z,99.90
2022-08-08T08:15:05.248Z,99.90
2022-08-08T08:17:36.508Z,99.90
2022-08-08T08:20:16.747Z,99.90
2022-08-08T08:22:44.594Z,99.90
2022-08-08T08:25:40.754Z,99.90
2022-08-08T08:28:04.871Z,99.90
2022-08-08T08:30:38.016Z,99.90
2022-08-08T08:33:05.852Z,99.90
2022-08-08T08:36:19.690Z,99.90
2022-08-08T08:38:27.559Z,99.90
2022-08-08T08:40:58.129Z,99.90
2022-08-08T08:43:29.196Z,99.90
2022-08-08T08:45:58.281Z,99.90
2022-08-08T08:48:32.129Z,99.90
2022-08-08T08:51:03.348Z,99.90
2022-08-08T08:53:58.857Z,99.90
2022-08-08T08:56:26.408Z,99.90
2022-08-08T08:58:58.066Z,99.90
2022-08-08T09:01:30.784Z,99.90
2022-08-08T09:04:02.480Z,99.90
2022-08-08T09:06:34.553Z,99.90
2022-08-08T09:09:07.427Z,99.90
2022-08-08T09:12:01.515Z,99.80
2022-08-08T09:14:31.485Z,99.90
2022-08-08T09:17:11.500Z,99.90
2022-08-08T09:22:01.962Z,99.90
2022-08-08T09:22:29.485Z,99.90
2022-08-08T09:24:58.576Z,99.90
2022-08-08T09:27:55.965Z,99.70
2022-08-08T09:30:19.932Z,99.00
2022-08-08T09:33:12.110Z,99.50
2022-08-08T09:35:49.863Z,97.80
2022-08-08T09:38:32.588Z,97.50
2022-08-08T09:41:06.986Z,99.30
2022-08-08T09:44:06.551Z,98.70
2022-08-08T09:46:45.264Z,97.10
2022-08-08T09:49:42.897Z,96.20
2022-08-08T09:52:53.904Z,95.50
2022-08-08T09:55:08.608Z,97.50
2022-08-08T09:57:46.003Z,96.40
2022-08-08T10:00:53.624Z,95.70
2022-08-08T10:03:07.048Z,95.90
2022-08-08T10:05:37.705Z,94.80
2022-08-08T10:08:08.379Z,95.80
2022-08-08T10:10:41.639Z,95.70
2022-08-08T10:13:19.262Z,95.50
2022-08-08T10:16:00.398Z,96.40
2022-08-08T10:18:31.379Z,96.00
2022-08-08T10:21:08.463Z,97.00
2022-08-08T10:23:58.911Z,97.40
2022-08-08T10:26:57.416Z,96.00
2022-08-08T10:29:25.175Z,96.40
2022-08-08T10:32:17.538Z,96.20
2022-08-08T10:34:58.750Z,94.80
2022-08-08T10:37:30.848Z,96.30
2022-08-08T10:40:07.003Z,97.00
2022-08-08T10:42:37.419Z,95.60
2022-08-08T10:45:08.885Z,94.00
2022-08-08T10:47:43.728Z,93.30
2022-08-08T10:50:16.263Z,95.70
2022-08-08T10:52:44.704Z,96.00
2022-08-08T10:55:39.027Z,96.40
2022-08-08T10:58:05.931Z,97.00
2022-08-08T11:00:48.714Z,95.20
2022-08-08T11:03:36.740Z,95.90
2022-08-08T11:06:14.074Z,96.20
2022-08-08T11:08:53.148Z,94.80
2022-08-08T11:11:32.571Z,93.70
2022-08-08T11:14:12.287Z,95.10
2022-08-08T11:16:46.558Z,93.10
2022-08-08T11:19:18.051Z,96.60
2022-08-08T11:21:55.515Z,93.80
2022-08-08T11:24:27.297Z,94.60
2022-08-08T11:27:10.264Z,93.60
2022-08-08T11:29:51.050Z,93.60
2022-08-08T11:32:32.084Z,95.90
2022-08-08T11:35:23.381Z,94.60
2022-08-08T11:38:34.442Z,94.20
2022-08-08T11:40:46.440Z,94.00
2022-08-08T11:43:18.700Z,94.80
2022-08-08T11:46:17.572Z,95.10
2022-08-08T11:48:41.169Z,96.00
2022-08-08T11:51:38.302Z,94.80
2022-08-08T11:54:01.963Z,94.90
2022-08-08T11:56:35.255Z,95.10
2022-08-08T11:59:10.654Z,93.80
2022-08-08T12:01:39.132Z,93.50
2022-08-08T12:04:09.365Z,94.20
2022-08-08T12:06:42.874Z,96.10
2022-08-08T12:09:16.930Z,92.70
2022-08-08T12:11:49.652Z,95.40
2022-08-08T12:14:24.075Z,93.20
2022-08-08T12:16:57.567Z,93.70
2022-08-08T12:19:37.533Z,93.20
2022-08-08T12:22:20.592Z,93.00
2022-08-08T12:25:04.595Z,93.30
2022-08-08T12:27:45.099Z,93.70
2022-08-08T12:30:18.368Z,95.40
2022-08-08T12:32:49.728Z,94.30
2022-08-08T12:35:23.390Z,92.90
2022-08-08T12:38:05.496Z,94.00
2022-08-08T12:40:54.103Z,95.80
2022-08-08T12:43:31.966Z,94.50
2022-08-08T12:46:02.933Z,91.60
2022-08-08T12:48:37.438Z,91.70
2022-08-08T12:51:11.255Z,90.80
2022-08-08T12:53:57.495Z,92.40
2022-08-08T12:56:33.951Z,94.30
2022-08-08T12:59:02.173Z,90.70
2022-08-08T13:01:38.240Z,93.30
2022-08-08T13:04:19.349Z,92.80
2022-08-08T13:06:58.710Z,90.10
2022-08-08T13:09:57.601Z,92.10
2022-08-08T13:12:29.514Z,90.60
2022-08-08T13:14:59.118Z,91.00
2022-08-08T13:17:54.202Z,91.50
2022-08-08T13:20:18.386Z,93.70
2022-08-08T13:22:46.948Z,93.00
2022-08-08T13:25:17.789Z,92.30
2022-08-08T13:27:53.183Z,92.10
2022-08-08T13:30:26.153Z,90.90
2022-08-08T13:32:57.137Z,94.20
2022-08-08T13:35:29.651Z,93.50
2022-08-08T13:38:08.622Z,92.70
2022-08-08T13:40:44.621Z,92.80
2022-08-08T13:43:13.721Z,91.30
2022-08-08T13:45:47.579Z,91.40
2022-08-08T13:48:16.987Z,91.10
2022-08-08T13:50:52.530Z,91.30
2022-08-08T13:53:28.107Z,91.90
2022-08-08T13:56:06.917Z,92.20
2022-08-08T13:58:57.904Z,92.00
2022-08-08T14:01:32.935Z,92.40
2022-08-08T14:04:24.510Z,92.00
2022-08-08T14:06:59.853Z,91.60
2022-08-08T14:10:05.546Z,91.20
2022-08-08T14:12:32.380Z,89.70
2022-08-08T14:15:03.024Z,90.60
2022-08-08T14:17:57.338Z,90.40
2022-08-08T14:20:55.915Z,90.50
2022-08-08T14:23:10.021Z,91.30
2022-08-08T14:25:46.301Z,90.60
2022-08-08T14:28:29.174Z,91.60
2022-08-08T14:31:09.278Z,91.30
2022-08-08T14:33:38.990Z,89.80
2022-08-08T14:36:11.481Z,90.60
2022-08-08T14:38:52.526Z,90.70
2022-08-08T14:41:45.185Z,92.80
2022-08-08T14:44:14.102Z,91.30
2022-08-08T14:47:00.171Z,92.00
2022-08-08T14:49:51.586Z,90.50
2022-08-08T14:52:23.566Z,91.10
2022-08-08T14:54:51.647Z,90.80
2022-08-08T14:57:24.155Z,91.30
2022-08-08T15:00:11.646Z,90.00
2022-08-08T15:03:01.471Z,90.10
2022-08-08T15:05:42.891Z,90.30
2022-08-08T15:08:21.582Z,91.40
2022-08-08T15:10:50.703Z,90.70
2022-08-08T15:13:18.588Z,93.00
2022-08-08T15:16:01.473Z,90.40
2022-08-08T15:18:31.313Z,90.30
2022-08-08T15:20:59.161Z,90.70
2022-08-08T15:23:33.056Z,90.90
2022-08-08T15:26:02.463Z,91.00
2022-08-08T15:28:33.606Z,89.30
2022-08-08T15:31:04.037Z,92.20
2022-08-08T15:33:35.714Z,91.30
2022-08-08T15:36:19.755Z,92.10
2022-08-08T15:38:56.428Z,92.20
2022-08-08T15:41:29.829Z,91.60
2022-08-08T15:44:07.830Z,91.40
2022-08-08T15:46:40.357Z,90.20
2022-08-08T15:49:13.587Z,90.60
2022-08-08T15:51:44.967Z,91.40
2022-08-08T15:54:37.185Z,90.60
2022-08-08T15:57:01.562Z,90.50
2022-08-08T16:00:06.657Z,91.70
2022-08-08T16:02:21.517Z,91.30
2022-08-08T16:04:54.501Z,90.00
2022-08-08T16:07:39.601Z,90.40
2022-08-08T16:13:15.267Z,90.40
2022-08-08T16:13:31.110Z,88.50
2022-08-08T16:15:58.831Z,92.40
2022-08-08T16:18:33.018Z,88.70
2022-08-08T16:21:01.236Z,90.30
2022-08-08T16:23:31.435Z,90.20
2022-08-08T16:26:05.090Z,90.10
2022-08-08T16:28:41.666Z,89.60
2022-08-08T16:31:09.773Z,91.00
2022-08-08T16:33:40.318Z,90.60
2022-08-08T16:36:15.640Z,91.00
2022-08-08T16:38:53.639Z,91.30
2022-08-08T16:41:22.651Z,91.60
2022-08-08T16:43:52.290Z,90.70
2022-08-08T16:46:43.113Z,91.70
2022-08-08T16:49:10.213Z,91.30
2022-08-08T16:55:02.587Z,91.10
2022-08-08T16:55:06.600Z,90.70
2022-08-08T16:58:11.975Z,89.70
2022-08-08T17:00:09.136Z,90.30
2022-08-08T17:02:39.659Z,90.30
2022-08-08T17:05:13.831Z,90.30
2022-08-08T17:07:42.303Z,88.80
2022-08-08T17:10:11.569Z,88.20
2022-08-08T17:12:46.873Z,88.60
2022-08-08T17:15:22.947Z,90.00
2022-08-08T17:18:02.488Z,89.70
2022-08-08T17:20:33.572Z,90.80
2022-08-08T17:23:18.309Z,90.70
2022-08-08T17:25:56.969Z,90.40
2022-08-08T17:28:34.715Z,90.10
2022-08-08T17:31:43.218Z,90.10
2022-08-08T17:34:49.366Z,91.00
2022-08-08T17:37:01.078Z,90.10
2022-08-08T17:40:04.334Z,89.10
2022-08-08T17:42:17.980Z,90.90
2022-08-08T17:44:46.238Z,89.70
2022-08-08T17:47:23.127Z,91.30
2022-08-08T17:50:02.677Z,90.40
2022-08-08T17:52:34.247Z,90.70
2022-08-08T17:55:05.745Z,90.30
2022-08-08T17:57:51.812Z,92.60
2022-08-08T18:00:25.851Z,90.60
2022-08-08T18:03:08.406Z,91.00
2022-08-08T18:05:48.315Z,91.70
2022-08-08T18:08:25.332Z,91.60
2022-08-08T18:11:14.428Z,91.90
2022-08-08T18:13:42.848Z,91.80
2022-08-08T18:16:11.666Z,91.50
2022-08-08T18:18:45.236Z,93.20
2022-08-08T18:21:34.841Z,91.80
2022-08-08T18:24:17.634Z,92.00
2022-08-08T18:26:54.526Z,92.10
2022-08-08T18:29:29.546Z,93.00
2022-08-08T18:32:03.466Z,93.60
2022-08-08T18:34:33.028Z,93.10
2022-08-08T18:37:02.906Z,94.90
2022-08-08T18:39:36.537Z,95.00
2022-08-08T18:42:11.602Z,95.30
2022-08-08T18:44:42.233Z,95.40
2022-08-08T18:47:28.131Z,95.50
2022-08-08T18:50:00.022Z,95.60
2022-08-08T18:52:29.843Z,95.80
2022-08-08T18:55:10.934Z,95.90
2022-08-08T18:57:43.501Z,96.00
2022-08-08T19:00:16.703Z,96.20
2022-08-08T19:02:56.690Z,96.20
2022-08-08T19:05:31.900Z,96.40
2022-08-08T19:08:09.960Z,96.40
2022-08-08T19:10:41.315Z,96.50
2022-08-08T19:13:10.799Z,96.70
2022-08-08T19:15:51.953Z,96.80
2022-08-08T19:18:48.497Z,96.80
2022-08-08T19:21:29.616Z,96.90
2022-08-08T19:23:59.859Z,97.10
2022-08-08T19:26:31.197Z,97.20
2022-08-08T19:28:59.803Z,97.40
2022-08-08T19:31:31.868Z,97.70
2022-08-08T19:34:30.388Z,97.50
2022-08-08T19:36:53.535Z,97.60
2022-08-08T19:39:23.614Z,97.70
2022-08-08T19:41:52.903Z,97.80
2022-08-08T19:44:34.728Z,97.90
2022-08-08T19:47:08.944Z,98.00
2022-08-08T19:49:37.971Z,98.10
2022-08-08T19:52:07.340Z,98.10
2022-08-08T19:54:38.466Z,98.20
2022-08-08T19:57:08.006Z,98.30
2022-08-08T19:59:35.931Z,98.40
2022-08-08T20:02:05.811Z,98.50
2022-08-08T20:04:33.902Z,98.50
2022-08-08T20:07:05.081Z,98.60
2022-08-08T20:09:55.489Z,98.70
2022-08-08T20:12:32.236Z,98.80
2022-08-08T20:15:14.472Z,98.80
2022-08-08T20:17:46.011Z,98.90
2022-08-08T20:20:15.937Z,99.00
2022-08-08T20:22:48.919Z,99.00
2022-08-08T20:25:22.019Z,99.20
2022-08-08T20:27:54.436Z,99.30
2022-08-08T20:30:52.665Z,99.30
2022-08-08T20:33:18.738Z,99.30
2022-08-08T20:35:58.110Z,99.40
2022-08-08T20:38:32.800Z,99.50
2022-08-08T20:41:05.432Z,99.50
2022-08-08T20:43:43.617Z,99.50
2022-08-08T20:46:15.706Z,99.60
2022-08-08T20:48:45.217Z,99.60
2022-08-08T20:51:14.396Z,99.70
2022-08-08T20:53:59.862Z,99.80
2022-08-08T20:56:34.957Z,99.80
2022-08-08T20:59:06.432Z,99.80
2022-08-08T21:02:05.747Z,99.90
2022-08-08T21:04:27.462Z,99.90
2022-08-08T21:06:55.889Z,99.90
2022-08-08T21:09:23.953Z,99.90
2022-08-08T21:12:02.972Z,99.90
2022-08-08T21:14:33.668Z,99.90
2022-08-08T21:17:03.028Z,99.90
2022-08-08T21:19:45.324Z,99.90
2022-08-08T21:22:15.380Z,99.90
2022-08-08T21:24:52.791Z,99.90
2022-08-08T21:28:06.251Z,99.90
2022-08-08T21:30:19.431Z,99.90
2022-08-08T21:32:51.799Z,99.90
2022-08-08T21:36:16.992Z,99.90
2022-08-08T21:38:16.409Z,99.90
2022-08-08T21:40:56.073Z,99.90
2022-08-08T21:43:25.917Z,99.90
2022-08-08T21:48:06.529Z,99.90
2022-08-08T21:48:53.620Z,99.90
2022-08-08T21:54:17.251Z,99.90
2022-08-08T21:54:31.741Z,99.90
2022-08-08T21:56:59.626Z,99.90
2022-08-08T22:00:01.460Z,99.90
2022-08-08T22:02:23.068Z,99.90
2022-08-08T22:04:52.649Z,99.90
2022-08-08T22:07:20.897Z,99.90
2022-08-08T22:09:54.926Z,99.90
2022-08-08T22:12:22.738Z,99.90
2022-08-08T22:14:53.756Z,99.90
2022-08-08T22:17:23.010Z,99.90
2022-08-08T22:20:11.547Z,99.90
2022-08-08T22:22:38.834Z,99.90
2022-08-08T22:25:12.523Z,99.90
2022-08-08T22:28:03.925Z,99.90
2022-08-08T22:30:40.668Z,99.90
2022-08-08T22:33:22.213Z,99.90
2022-08-08T22:36:04.345Z,99.90
2022-08-08T22:38:39.366Z,99.90
2022-08-08T22:41:21.253Z,99.90
2022-08-08T22:44:05.399Z,99.90
2022-08-08T22:46:34.446Z,99.90
2022-08-08T22:49:09.034Z,99.90
2022-08-08T22:51:42.793Z,99.90
2022-08-08T22:54:31.343Z,99.90
2022-08-08T22:57:11.320Z,99.90
2022-08-08T23:02:28.715Z,99.90
2022-08-08T23:04:58.537Z,99.90
2022-08-08T23:07:49.489Z,99.90
2022-08-08T23:10:21.065Z,99.90
2022-08-08T23:12:51.734Z,99.90
2022-08-08T23:16:38.240Z,99.90
2022-08-08T23:18:12.034Z,99.90
2022-08-08T23:20:43.472Z,99.90
2022-08-08T23:23:12.359Z,99.90
2022-08-08T23:25:48.333Z,99.90
2022-08-08T23:28:17.725Z,99.90
2022-08-08T23:30:46.726Z,99.90
2022-08-08T23:33:21.273Z,99.90
2022-08-08T23:36:07.839Z,99.90
2022-08-08T23:38:41.583Z,99.90
2022-08-08T23:41:23.218Z,99.90
2022-08-08T23:43:54.328Z,99.90
2022-08-08T23:49:08.355Z,99.90
2022-08-08T23:49:18.124Z,99.90
2022-08-08T23:52:06.194Z,99.90
2022-08-08T23:54:41.828Z,99.90
2022-08-08T23:57:25.114Z,99.90
